Harstine, Washington
Current Conditions -  °F | °C
As of 4:53 PM on Wednesday 22 Oct 2014 (Local Time) from KSHN Reporting Station
Light Rain Light Rain  
Wind Chill: 55°   Ceiling: 2000
Heat Index: 55°   Visibility: 7mi
Dew Point: 53°   Wind: 6mph
Humidity: 93%   Direction: 130°SE
Pressure: 29.56"   Gusts: NA
Location:  47.1839°N, 123.15°W
Report Text: KSHN 222353Z AUTO 13005KT 7SM -RA BKN020 OVC060 13/12 A2956 RMK AO2 SLP012 P0006 60052 T01280117 10133 20128 58026 TSNO
Loading
Personal Weather Stations






























Interactive Weather Map
Tropical Storm Tracking
New forecast layout! Learn more

10-Day Weather Forecast

Advertisements
Track Severe Weather on mobile